sensor_id;sensor_type;location;lat;lon;timestamp;temperature;humidity
20081;DHT22;10200;49.232;9.222;2023-04-12T00:01:31;10.40;99.90
20081;DHT22;10200;49.232;9.222;2023-04-12T00:03:56;10.40;99.80
20081;DHT22;10200;49.232;9.222;2023-04-12T00:06:24;10.30;99.90
20081;DHT22;10200;49.232;9.222;2023-04-12T00:08:52;10.30;99.90
20081;DHT22;10200;49.232;9.222;2023-04-12T00:11:17;10.30;99.90
20081;DHT22;10200;49.232;9.222;2023-04-12T00:13:43;10.30;99.90
20081;DHT22;10200;49.232;9.222;2023-04-12T00:16:08;10.30;99.90
20081;DHT22;10200;49.232;9.222;2023-04-12T00:18:34;10.30;99.90
20081;DHT22;10200;49.232;9.222;2023-04-12T00:21:00;10.30;99.90
20081;DHT22;10200;49.232;9.222;2023-04-12T00:23:25;10.40;99.90
20081;DHT22;10200;49.232;9.222;2023-04-12T00:25:51;10.40;99.90
20081;DHT22;10200;49.232;9.222;2023-04-12T00:28:18;10.40;99.90
20081;DHT22;10200;49.232;9.222;2023-04-12T00:30:44;10.40;99.90
20081;DHT22;10200;49.232;9.222;2023-04-12T00:33:10;10.50;99.90
20081;DHT22;10200;49.232;9.222;2023-04-12T00:35:36;10.40;99.90
20081;DHT22;10200;49.232;9.222;2023-04-12T00:38:01;10.40;99.90
20081;DHT22;10200;49.232;9.222;2023-04-12T00:40:28;10.40;99.90
20081;DHT22;10200;49.232;9.222;2023-04-12T00:42:55;10.40;99.90
20081;DHT22;10200;49.232;9.222;2023-04-12T00:45:21;10.40;99.90
20081;DHT22;10200;49.232;9.222;2023-04-12T00:47:47;10.40;99.90
20081;DHT22;10200;49.232;9.222;2023-04-12T00:50:13;10.40;99.90
20081;DHT22;10200;49.232;9.222;2023-04-12T00:52:39;10.40;99.90
20081;DHT22;10200;49.232;9.222;2023-04-12T00:55:05;10.60;99.90
20081;DHT22;10200;49.232;9.222;2023-04-12T00:57:37;10.40;99.90
20081;DHT22;10200;49.232;9.222;2023-04-12T01:00:08;10.30;99.90
20081;DHT22;10200;49.232;9.222;2023-04-12T01:02:40;10.40;99.90
20081;DHT22;10200;49.232;9.222;2023-04-12T01:05:07;10.30;99.90
20081;DHT22;10200;49.232;9.222;2023-04-12T01:07:44;10.30;99.90
20081;DHT22;10200;49.232;9.222;2023-04-12T01:15:38;10.20;99.90
20081;DHT22;10200;49.232;9.222;2023-04-12T01:18:13;10.20;99.90
20081;DHT22;10200;49.232;9.222;2023-04-12T01:20:44;10.30;99.90
20081;DHT22;10200;49.232;9.222;2023-04-12T01:29:03;10.30;99.90
20081;DHT22;10200;49.232;9.222;2023-04-12T01:31:33;10.30;99.90
20081;DHT22;10200;49.232;9.222;2023-04-12T01:34:02;10.30;99.90
20081;DHT22;10200;49.232;9.222;2023-04-12T01:36:29;10.40;99.90
20081;DHT22;10200;49.232;9.222;2023-04-12T01:38:55;10.40;99.90
20081;DHT22;10200;49.232;9.222;2023-04-12T01:41:23;10.40;99.90
20081;DHT22;10200;49.232;9.222;2023-04-12T01:43:49;10.40;99.90
20081;DHT22;10200;49.232;9.222;2023-04-12T01:46:16;10.40;99.90
20081;DHT22;10200;49.232;9.222;2023-04-12T01:48:48;10.40;99.90
20081;DHT22;10200;49.232;9.222;2023-04-12T01:54:07;10.40;99.90
20081;DHT22;10200;49.232;9.222;2023-04-12T01:56:39;10.40;99.90
20081;DHT22;10200;49.232;9.222;2023-04-12T01:59:06;10.40;99.90
20081;DHT22;10200;49.232;9.222;2023-04-12T02:01:33;10.40;99.90
20081;DHT22;10200;49.232;9.222;2023-04-12T02:04:00;10.30;99.90
20081;DHT22;10200;49.232;9.222;2023-04-12T02:06:26;10.30;99.90
20081;DHT22;10200;49.232;9.222;2023-04-12T02:09:00;10.20;99.90
20081;DHT22;10200;49.232;9.222;2023-04-12T02:11:27;10.20;99.90
20081;DHT22;10200;49.232;9.222;2023-04-12T02:13:53;10.20;99.90
20081;DHT22;10200;49.232;9.222;2023-04-12T02:16:18;10.20;99.90
20081;DHT22;10200;49.232;9.222;2023-04-12T02:18:45;10.20;99.90
20081;DHT22;10200;49.232;9.222;2023-04-12T02:21:11;10.10;99.90
20081;DHT22;10200;49.232;9.222;2023-04-12T02:23:37;10.10;99.90
20081;DHT22;10200;49.232;9.222;2023-04-12T02:26:04;10.10;99.90
20081;DHT22;10200;49.232;9.222;2023-04-12T02:28:30;10.10;99.90
20081;DHT22;10200;49.232;9.222;2023-04-12T02:30:55;10.00;99.90
20081;DHT22;10200;49.232;9.222;2023-04-12T02:33:22;9.90;99.90
20081;DHT22;10200;49.232;9.222;2023-04-12T02:35:53;9.90;99.90
20081;DHT22;10200;49.232;9.222;2023-04-12T02:38:19;9.80;99.90
20081;DHT22;10200;49.232;9.222;2023-04-12T02:40:45;9.80;99.90
20081;DHT22;10200;49.232;9.222;2023-04-12T02:43:11;9.80;99.90
20081;DHT22;10200;49.232;9.222;2023-04-12T02:45:37;9.80;99.90
20081;DHT22;10200;49.232;9.222;2023-04-12T02:48:03;9.70;99.90
20081;DHT22;10200;49.232;9.222;2023-04-12T02:50:29;9.70;99.90
20081;DHT22;10200;49.232;9.222;2023-04-12T02:52:55;9.80;99.90
20081;DHT22;10200;49.232;9.222;2023-04-12T02:55:21;9.80;99.90
20081;DHT22;10200;49.232;9.222;2023-04-12T02:57:48;9.70;99.90
20081;DHT22;10200;49.232;9.222;2023-04-12T03:00:14;9.70;99.90
20081;DHT22;10200;49.232;9.222;2023-04-12T03:02:41;9.70;99.90
20081;DHT22;10200;49.232;9.222;2023-04-12T03:05:07;9.70;99.90
20081;DHT22;10200;49.232;9.222;2023-04-12T03:07:33;9.70;99.90
20081;DHT22;10200;49.232;9.222;2023-04-12T03:10:00;9.70;99.90
20081;DHT22;10200;49.232;9.222;2023-04-12T03:12:26;9.70;99.90
20081;DHT22;10200;49.232;9.222;2023-04-12T03:14:53;9.70;99.90
20081;DHT22;10200;49.232;9.222;2023-04-12T03:17:18;9.80;99.90
20081;DHT22;10200;49.232;9.222;2023-04-12T03:19:44;9.70;99.90
20081;DHT22;10200;49.232;9.222;2023-04-12T03:22:10;9.70;99.90
20081;DHT22;10200;49.232;9.222;2023-04-12T03:24:36;9.80;99.90
20081;DHT22;10200;49.232;9.222;2023-04-12T03:27:03;9.70;99.90
20081;DHT22;10200;49.232;9.222;2023-04-12T03:29:32;9.70;99.90
20081;DHT22;10200;49.232;9.222;2023-04-12T03:31:58;9.70;99.90
20081;DHT22;10200;49.232;9.222;2023-04-12T03:34:25;9.70;99.90
20081;DHT22;10200;49.232;9.222;2023-04-12T03:36:52;9.70;99.90
20081;DHT22;10200;49.232;9.222;2023-04-12T03:39:18;9.70;99.90
20081;DHT22;10200;49.232;9.222;2023-04-12T03:41:44;9.70;99.90
20081;DHT22;10200;49.232;9.222;2023-04-12T03:44:10;9.70;99.90
20081;DHT22;10200;49.232;9.222;2023-04-12T03:46:36;9.70;99.90
20081;DHT22;10200;49.232;9.222;2023-04-12T03:49:03;9.70;99.90
20081;DHT22;10200;49.232;9.222;2023-04-12T03:51:30;9.80;99.90
20081;DHT22;10200;49.232;9.222;2023-04-12T03:53:56;9.80;99.90
20081;DHT22;10200;49.232;9.222;2023-04-12T03:56:22;9.80;99.90
20081;DHT22;10200;49.232;9.222;2023-04-12T03:58:49;9.80;99.90
20081;DHT22;10200;49.232;9.222;2023-04-12T04:01:15;9.90;99.90
20081;DHT22;10200;49.232;9.222;2023-04-12T04:03:43;9.90;99.90
20081;DHT22;10200;49.232;9.222;2023-04-12T04:06:10;9.90;99.90
20081;DHT22;10200;49.232;9.222;2023-04-12T04:08:36;9.90;99.90
20081;DHT22;10200;49.232;9.222;2023-04-12T04:11:02;9.90;99.90
20081;DHT22;10200;49.232;9.222;2023-04-12T04:13:28;9.90;99.90
20081;DHT22;10200;49.232;9.222;2023-04-12T04:16:03;9.80;99.90
20081;DHT22;10200;49.232;9.222;2023-04-12T04:18:30;9.80;99.90
20081;DHT22;10200;49.232;9.222;2023-04-12T04:20:56;9.80;99.90
20081;DHT22;10200;49.232;9.222;2023-04-12T04:23:23;9.80;99.90
20081;DHT22;10200;49.232;9.222;2023-04-12T04:25:48;9.80;99.90
20081;DHT22;10200;49.232;9.222;2023-04-12T04:28:15;9.80;99.90
20081;DHT22;10200;49.232;9.222;2023-04-12T04:30:41;9.70;99.90
20081;DHT22;10200;49.232;9.222;2023-04-12T04:33:13;9.70;99.90
20081;DHT22;10200;49.232;9.222;2023-04-12T04:35:40;9.70;99.90
20081;DHT22;10200;49.232;9.222;2023-04-12T04:38:07;9.70;99.90
20081;DHT22;10200;49.232;9.222;2023-04-12T04:40:36;9.70;99.90
20081;DHT22;10200;49.232;9.222;2023-04-12T04:43:02;9.70;99.90
20081;DHT22;10200;49.232;9.222;2023-04-12T04:45:27;9.70;99.90
20081;DHT22;10200;49.232;9.222;2023-04-12T04:47:55;9.70;99.90
20081;DHT22;10200;49.232;9.222;2023-04-12T04:50:24;9.60;99.90
20081;DHT22;10200;49.232;9.222;2023-04-12T04:52:50;9.70;99.90
20081;DHT22;10200;49.232;9.222;2023-04-12T04:55:16;9.60;99.90
20081;DHT22;10200;49.232;9.222;2023-04-12T04:57:43;9.60;99.90
20081;DHT22;10200;49.232;9.222;2023-04-12T05:00:09;9.50;99.90
20081;DHT22;10200;49.232;9.222;2023-04-12T05:02:39;9.60;99.90
20081;DHT22;10200;49.232;9.222;2023-04-12T05:05:11;9.60;99.90
20081;DHT22;10200;49.232;9.222;2023-04-12T05:07:38;9.60;99.90
20081;DHT22;10200;49.232;9.222;2023-04-12T05:10:04;9.60;99.90
20081;DHT22;10200;49.232;9.222;2023-04-12T05:12:30;9.60;99.90
20081;DHT22;10200;49.232;9.222;2023-04-12T05:14:56;9.60;99.90
20081;DHT22;10200;49.232;9.222;2023-04-12T05:17:22;9.60;99.90
20081;DHT22;10200;49.232;9.222;2023-04-12T05:19:47;9.60;99.90
20081;DHT22;10200;49.232;9.222;2023-04-12T05:22:17;9.50;99.90
20081;DHT22;10200;49.232;9.222;2023-04-12T05:24:45;9.50;99.90
20081;DHT22;10200;49.232;9.222;2023-04-12T05:27:11;9.50;99.90
20081;DHT22;10200;49.232;9.222;2023-04-12T05:29:36;9.50;99.90
20081;DHT22;10200;49.232;9.222;2023-04-12T05:32:02;9.40;99.90
20081;DHT22;10200;49.232;9.222;2023-04-12T05:34:28;9.40;99.90
20081;DHT22;10200;49.232;9.222;2023-04-12T05:36:53;9.40;99.90
20081;DHT22;10200;49.232;9.222;2023-04-12T05:39:19;9.40;99.90
20081;DHT22;10200;49.232;9.222;2023-04-12T05:41:45;9.50;99.90
20081;DHT22;10200;49.232;9.222;2023-04-12T05:44:11;9.40;99.90
20081;DHT22;10200;49.232;9.222;2023-04-12T05:46:36;9.40;99.90
20081;DHT22;10200;49.232;9.222;2023-04-12T05:49:02;9.40;99.90
20081;DHT22;10200;49.232;9.222;2023-04-12T05:51:28;9.50;99.90
20081;DHT22;10200;49.232;9.222;2023-04-12T05:53:53;9.60;99.90
20081;DHT22;10200;49.232;9.222;2023-04-12T05:56:19;9.50;99.90
20081;DHT22;10200;49.232;9.222;2023-04-12T05:58:45;9.60;99.90
20081;DHT22;10200;49.232;9.222;2023-04-12T06:01:11;9.60;99.90
20081;DHT22;10200;49.232;9.222;2023-04-12T06:03:37;9.60;99.90
20081;DHT22;10200;49.232;9.222;2023-04-12T06:06:06;9.60;99.90
20081;DHT22;10200;49.232;9.222;2023-04-12T06:08:31;9.60;99.90
20081;DHT22;10200;49.232;9.222;2023-04-12T06:10:57;9.60;99.90
20081;DHT22;10200;49.232;9.222;2023-04-12T06:13:23;9.60;99.90
20081;DHT22;10200;49.232;9.222;2023-04-12T06:15:48;9.50;99.90
20081;DHT22;10200;49.232;9.222;2023-04-12T06:18:14;9.50;99.90
20081;DHT22;10200;49.232;9.222;2023-04-12T06:20:40;9.50;99.90
20081;DHT22;10200;49.232;9.222;2023-04-12T06:23:06;9.60;99.90
20081;DHT22;10200;49.232;9.222;2023-04-12T06:25:32;9.60;99.90
20081;DHT22;10200;49.232;9.222;2023-04-12T06:27:58;9.70;99.90
20081;DHT22;10200;49.232;9.222;2023-04-12T06:30:24;9.70;99.90
20081;DHT22;10200;49.232;9.222;2023-04-12T06:32:49;9.70;99.90
20081;DHT22;10200;49.232;9.222;2023-04-12T06:35:15;9.80;99.90
20081;DHT22;10200;49.232;9.222;2023-04-12T06:37:41;9.80;99.90
20081;DHT22;10200;49.232;9.222;2023-04-12T06:40:07;9.80;99.90
20081;DHT22;10200;49.232;9.222;2023-04-12T06:42:33;9.80;99.90
20081;DHT22;10200;49.232;9.222;2023-04-12T06:44:59;9.70;99.90
20081;DHT22;10200;49.232;9.222;2023-04-12T06:47:24;9.70;99.90
20081;DHT22;10200;49.232;9.222;2023-04-12T06:49:50;9.70;99.90
20081;DHT22;10200;49.232;9.222;2023-04-12T06:52:25;9.70;99.90
20081;DHT22;10200;49.232;9.222;2023-04-12T06:54:51;9.80;99.90
20081;DHT22;10200;49.232;9.222;2023-04-12T06:57:17;9.80;99.90
20081;DHT22;10200;49.232;9.222;2023-04-12T06:59:42;9.80;99.90
20081;DHT22;10200;49.232;9.222;2023-04-12T07:02:08;9.80;99.90
20081;DHT22;10200;49.232;9.222;2023-04-12T07:04:33;9.90;99.90
20081;DHT22;10200;49.232;9.222;2023-04-12T07:06:59;9.90;99.90
20081;DHT22;10200;49.232;9.222;2023-04-12T07:09:25;10.00;99.90
20081;DHT22;10200;49.232;9.222;2023-04-12T07:11:50;10.00;99.90
20081;DHT22;10200;49.232;9.222;2023-04-12T07:14:17;10.00;99.90
20081;DHT22;10200;49.232;9.222;2023-04-12T07:16:42;10.00;99.90
20081;DHT22;10200;49.232;9.222;2023-04-12T07:19:08;10.10;99.90
20081;DHT22;10200;49.232;9.222;2023-04-12T07:21:33;10.20;99.90
20081;DHT22;10200;49.232;9.222;2023-04-12T07:23:59;10.20;99.90
20081;DHT22;10200;49.232;9.222;2023-04-12T07:26:25;10.10;99.90
20081;DHT22;10200;49.232;9.222;2023-04-12T07:28:51;10.20;99.90
20081;DHT22;10200;49.232;9.222;2023-04-12T07:31:17;10.20;99.90
20081;DHT22;10200;49.232;9.222;2023-04-12T07:33:43;10.30;99.90
20081;DHT22;10200;49.232;9.222;2023-04-12T07:36:09;10.30;99.90
20081;DHT22;10200;49.232;9.222;2023-04-12T07:38:35;10.40;99.90
20081;DHT22;10200;49.232;9.222;2023-04-12T07:41:00;10.40;99.90
20081;DHT22;10200;49.232;9.222;2023-04-12T07:43:26;10.50;99.90
20081;DHT22;10200;49.232;9.222;2023-04-12T07:45:53;10.50;99.90
20081;DHT22;10200;49.232;9.222;2023-04-12T07:48:20;10.50;99.90
20081;DHT22;10200;49.232;9.222;2023-04-12T07:50:46;10.50;99.90
20081;DHT22;10200;49.232;9.222;2023-04-12T07:53:24;10.50;99.90
20081;DHT22;10200;49.232;9.222;2023-04-12T07:55:51;10.50;99.90
20081;DHT22;10200;49.232;9.222;2023-04-12T07:58:17;10.60;99.90
20081;DHT22;10200;49.232;9.222;2023-04-12T08:00:44;10.70;99.90
20081;DHT22;10200;49.232;9.222;2023-04-12T08:03:11;10.60;99.90
20081;DHT22;10200;49.232;9.222;2023-04-12T08:05:37;10.70;99.90
20081;DHT22;10200;49.232;9.222;2023-04-12T08:08:03;10.70;99.90
20081;DHT22;10200;49.232;9.222;2023-04-12T08:10:29;10.70;99.90
20081;DHT22;10200;49.232;9.222;2023-04-12T08:12:55;10.80;99.90
20081;DHT22;10200;49.232;9.222;2023-04-12T08:15:21;10.80;99.90
20081;DHT22;10200;49.232;9.222;2023-04-12T08:17:46;10.90;99.90
20081;DHT22;10200;49.232;9.222;2023-04-12T08:20:12;11.00;99.90
20081;DHT22;10200;49.232;9.222;2023-04-12T08:22:43;11.00;99.90
20081;DHT22;10200;49.232;9.222;2023-04-12T08:25:09;11.00;99.90
20081;DHT22;10200;49.232;9.222;2023-04-12T08:27:35;11.00;99.90
20081;DHT22;10200;49.232;9.222;2023-04-12T08:30:01;11.00;99.90
20081;DHT22;10200;49.232;9.222;2023-04-12T08:32:27;11.10;99.90
20081;DHT22;10200;49.232;9.222;2023-04-12T08:34:53;11.10;99.90
20081;DHT22;10200;49.232;9.222;2023-04-12T08:37:20;11.10;99.90
20081;DHT22;10200;49.232;9.222;2023-04-12T08:39:45;11.10;99.90
20081;DHT22;10200;49.232;9.222;2023-04-12T08:42:14;11.10;99.90
20081;DHT22;10200;49.232;9.222;2023-04-12T08:44:41;11.20;99.90
20081;DHT22;10200;49.232;9.222;2023-04-12T08:47:08;11.40;99.90
20081;DHT22;10200;49.232;9.222;2023-04-12T08:49:35;11.40;99.90
20081;DHT22;10200;49.232;9.222;2023-04-12T08:52:06;11.40;99.90
20081;DHT22;10200;49.232;9.222;2023-04-12T08:54:32;11.30;99.90
20081;DHT22;10200;49.232;9.222;2023-04-12T08:57:00;11.40;99.90
20081;DHT22;10200;49.232;9.222;2023-04-12T08:59:27;11.50;99.90
20081;DHT22;10200;49.232;9.222;2023-04-12T09:01:54;11.60;99.90
20081;DHT22;10200;49.232;9.222;2023-04-12T09:04:21;11.60;99.90
20081;DHT22;10200;49.232;9.222;2023-04-12T09:06:46;11.70;99.90
20081;DHT22;10200;49.232;9.222;2023-04-12T09:09:12;11.70;99.90
20081;DHT22;10200;49.232;9.222;2023-04-12T09:11:38;11.80;99.90
20081;DHT22;10200;49.232;9.222;2023-04-12T09:14:22;11.80;99.90
20081;DHT22;10200;49.232;9.222;2023-04-12T09:16:48;12.00;99.90
20081;DHT22;10200;49.232;9.222;2023-04-12T09:19:14;12.10;99.90
20081;DHT22;10200;49.232;9.222;2023-04-12T09:22:00;12.10;99.90
20081;DHT22;10200;49.232;9.222;2023-04-12T09:24:27;12.20;99.90
20081;DHT22;10200;49.232;9.222;2023-04-12T09:27:06;12.10;99.90
20081;DHT22;10200;49.232;9.222;2023-04-12T09:29:33;12.20;99.90
20081;DHT22;10200;49.232;9.222;2023-04-12T09:32:02;12.10;99.90
20081;DHT22;10200;49.232;9.222;2023-04-12T09:34:29;12.20;99.90
20081;DHT22;10200;49.232;9.222;2023-04-12T09:36:55;12.10;99.90
20081;DHT22;10200;49.232;9.222;2023-04-12T09:39:31;12.10;99.90
20081;DHT22;10200;49.232;9.222;2023-04-12T09:42:10;12.20;99.90
20081;DHT22;10200;49.232;9.222;2023-04-12T09:44:37;12.20;99.90
20081;DHT22;10200;49.232;9.222;2023-04-12T09:47:03;12.30;99.90
20081;DHT22;10200;49.232;9.222;2023-04-12T09:49:39;12.40;99.90
20081;DHT22;10200;49.232;9.222;2023-04-12T09:52:06;12.40;99.90
20081;DHT22;10200;49.232;9.222;2023-04-12T09:54:37;12.40;99.90
20081;DHT22;10200;49.232;9.222;2023-04-12T09:57:07;12.40;99.90
20081;DHT22;10200;49.232;9.222;2023-04-12T09:59:36;12.40;99.90
20081;DHT22;10200;49.232;9.222;2023-04-12T10:02:18;12.50;99.90
20081;DHT22;10200;49.232;9.222;2023-04-12T10:04:47;12.50;99.90
20081;DHT22;10200;49.232;9.222;2023-04-12T10:07:13;12.60;99.90
20081;DHT22;10200;49.232;9.222;2023-04-12T10:09:40;12.60;99.90
20081;DHT22;10200;49.232;9.222;2023-04-12T10:12:07;12.70;99.90
20081;DHT22;10200;49.232;9.222;2023-04-12T10:14:33;12.70;99.90
20081;DHT22;10200;49.232;9.222;2023-04-12T10:17:00;12.90;99.90
20081;DHT22;10200;49.232;9.222;2023-04-12T10:19:29;13.10;99.90
20081;DHT22;10200;49.232;9.222;2023-04-12T10:21:56;13.30;99.90
20081;DHT22;10200;49.232;9.222;2023-04-12T10:24:23;13.30;99.90
20081;DHT22;10200;49.232;9.222;2023-04-12T10:26:52;13.40;99.90
20081;DHT22;10200;49.232;9.222;2023-04-12T10:29:28;13.40;99.90
20081;DHT22;10200;49.232;9.222;2023-04-12T10:31:56;13.40;99.90
20081;DHT22;10200;49.232;9.222;2023-04-12T10:34:29;13.40;99.90
20081;DHT22;10200;49.232;9.222;2023-04-12T10:36:59;13.60;99.90
20081;DHT22;10200;49.232;9.222;2023-04-12T10:39:40;13.70;99.90
20081;DHT22;10200;49.232;9.222;2023-04-12T10:42:26;13.80;99.90
20081;DHT22;10200;49.232;9.222;2023-04-12T10:50:22;13.80;99.90
20081;DHT22;10200;49.232;9.222;2023-04-12T10:55:40;13.60;99.90
20081;DHT22;10200;49.232;9.222;2023-04-12T10:58:07;13.70;99.90
20081;DHT22;10200;49.232;9.222;2023-04-12T11:03:26;13.70;99.90
20081;DHT22;10200;49.232;9.222;2023-04-12T11:06:03;13.70;99.90
20081;DHT22;10200;49.232;9.222;2023-04-12T11:08:30;13.60;99.90
20081;DHT22;10200;49.232;9.222;2023-04-12T11:11:02;13.50;99.90
20081;DHT22;10200;49.232;9.222;2023-04-12T11:13:33;13.50;99.90
20081;DHT22;10200;49.232;9.222;2023-04-12T11:16:04;13.50;99.90
20081;DHT22;10200;49.232;9.222;2023-04-12T11:18:32;13.60;99.90
20081;DHT22;10200;49.232;9.222;2023-04-12T11:21:00;13.60;99.90
20081;DHT22;10200;49.232;9.222;2023-04-12T11:23:27;13.70;99.90
20081;DHT22;10200;49.232;9.222;2023-04-12T11:25:53;13.70;99.90
20081;DHT22;10200;49.232;9.222;2023-04-12T11:28:19;13.80;99.90
20081;DHT22;10200;49.232;9.222;2023-04-12T11:30:55;13.60;99.90
20081;DHT22;10200;49.232;9.222;2023-04-12T11:35:56;14.00;99.90
20081;DHT22;10200;49.232;9.222;2023-04-12T11:38:22;14.00;99.90
20081;DHT22;10200;49.232;9.222;2023-04-12T11:40:48;14.00;99.90
20081;DHT22;10200;49.232;9.222;2023-04-12T11:43:20;13.90;99.90
20081;DHT22;10200;49.232;9.222;2023-04-12T11:45:46;14.10;99.90
20081;DHT22;10200;49.232;9.222;2023-04-12T11:48:12;14.00;99.90
20081;DHT22;10200;49.232;9.222;2023-04-12T11:50:37;14.00;99.90
20081;DHT22;10200;49.232;9.222;2023-04-12T11:53:14;14.00;99.90
20081;DHT22;10200;49.232;9.222;2023-04-12T11:55:49;13.90;99.90
20081;DHT22;10200;49.232;9.222;2023-04-12T11:58:16;13.90;99.90
20081;DHT22;10200;49.232;9.222;2023-04-12T12:00:43;13.90;99.90
20081;DHT22;10200;49.232;9.222;2023-04-12T12:03:10;13.90;99.90
20081;DHT22;10200;49.232;9.222;2023-04-12T12:05:37;14.00;99.90
20081;DHT22;10200;49.232;9.222;2023-04-12T12:08:03;14.00;99.90
20081;DHT22;10200;49.232;9.222;2023-04-12T12:10:35;14.00;99.90
20081;DHT22;10200;49.232;9.222;2023-04-12T12:13:01;13.90;99.90
20081;DHT22;10200;49.232;9.222;2023-04-12T12:15:30;13.90;99.90
20081;DHT22;10200;49.232;9.222;2023-04-12T12:17:56;13.90;99.90
20081;DHT22;10200;49.232;9.222;2023-04-12T12:20:22;13.90;99.90
20081;DHT22;10200;49.232;9.222;2023-04-12T12:22:49;14.00;99.90
20081;DHT22;10200;49.232;9.222;2023-04-12T12:25:17;14.00;99.90
20081;DHT22;10200;49.232;9.222;2023-04-12T12:27:43;14.00;99.90
20081;DHT22;10200;49.232;9.222;2023-04-12T12:30:16;14.00;99.90
20081;DHT22;10200;49.232;9.222;2023-04-12T12:32:42;14.00;99.90
20081;DHT22;10200;49.232;9.222;2023-04-12T12:35:10;14.00;99.90
20081;DHT22;10200;49.232;9.222;2023-04-12T12:37:37;14.00;99.90
20081;DHT22;10200;49.232;9.222;2023-04-12T12:40:10;14.00;99.90
20081;DHT22;10200;49.232;9.222;2023-04-12T12:42:49;14.00;99.90
20081;DHT22;10200;49.232;9.222;2023-04-12T12:45:17;14.00;99.90
20081;DHT22;10200;49.232;9.222;2023-04-12T12:50:22;14.00;99.90
20081;DHT22;10200;49.232;9.222;2023-04-12T12:52:49;14.10;99.90
20081;DHT22;10200;49.232;9.222;2023-04-12T12:55:16;14.10;99.90
20081;DHT22;10200;49.232;9.222;2023-04-12T12:57:43;14.00;99.90
20081;DHT22;10200;49.232;9.222;2023-04-12T13:00:10;14.10;99.90
20081;DHT22;10200;49.232;9.222;2023-04-12T13:02:38;14.20;99.90
20081;DHT22;10200;49.232;9.222;2023-04-12T13:05:05;14.20;99.90
20081;DHT22;10200;49.232;9.222;2023-04-12T13:07:30;14.20;99.90
20081;DHT22;10200;49.232;9.222;2023-04-12T13:09:56;14.20;99.90
20081;DHT22;10200;49.232;9.222;2023-04-12T13:12:22;14.20;99.90
20081;DHT22;10200;49.232;9.222;2023-04-12T13:14:47;14.20;99.90
20081;DHT22;10200;49.232;9.222;2023-04-12T13:17:14;14.20;99.90
20081;DHT22;10200;49.232;9.222;2023-04-12T13:19:40;14.30;99.90
20081;DHT22;10200;49.232;9.222;2023-04-12T13:22:06;14.20;99.90
20081;DHT22;10200;49.232;9.222;2023-04-12T13:24:33;14.20;99.90
20081;DHT22;10200;49.232;9.222;2023-04-12T13:26:59;14.20;99.90
20081;DHT22;10200;49.232;9.222;2023-04-12T13:29:24;14.20;99.90
20081;DHT22;10200;49.232;9.222;2023-04-12T13:31:50;14.30;99.90
20081;DHT22;10200;49.232;9.222;2023-04-12T13:34:16;14.30;99.90
20081;DHT22;10200;49.232;9.222;2023-04-12T13:36:42;14.40;99.90
20081;DHT22;10200;49.232;9.222;2023-04-12T13:39:07;14.50;99.90
20081;DHT22;10200;49.232;9.222;2023-04-12T13:41:33;14.60;99.90
20081;DHT22;10200;49.232;9.222;2023-04-12T13:43:59;14.60;99.90
20081;DHT22;10200;49.232;9.222;2023-04-12T13:46:25;14.70;99.90
20081;DHT22;10200;49.232;9.222;2023-04-12T13:48:51;14.70;99.90
20081;DHT22;10200;49.232;9.222;2023-04-12T13:51:16;14.60;99.90
20081;DHT22;10200;49.232;9.222;2023-04-12T13:53:43;14.60;99.90
20081;DHT22;10200;49.232;9.222;2023-04-12T13:56:08;14.60;99.90
20081;DHT22;10200;49.232;9.222;2023-04-12T13:58:36;14.60;99.90
20081;DHT22;10200;49.232;9.222;2023-04-12T14:01:04;14.60;99.90
20081;DHT22;10200;49.232;9.222;2023-04-12T14:03:30;14.50;99.90
20081;DHT22;10200;49.232;9.222;2023-04-12T14:05:56;14.50;99.90
20081;DHT22;10200;49.232;9.222;2023-04-12T14:08:21;14.50;99.90
20081;DHT22;10200;49.232;9.222;2023-04-12T14:10:47;14.60;99.90
20081;DHT22;10200;49.232;9.222;2023-04-12T14:13:13;14.70;99.90
20081;DHT22;10200;49.232;9.222;2023-04-12T14:15:39;14.80;99.90
20081;DHT22;10200;49.232;9.222;2023-04-12T14:18:04;15.00;99.90
20081;DHT22;10200;49.232;9.222;2023-04-12T14:20:30;15.00;99.90
20081;DHT22;10200;49.232;9.222;2023-04-12T14:22:55;15.00;99.90
20081;DHT22;10200;49.232;9.222;2023-04-12T14:25:21;15.10;99.90
20081;DHT22;10200;49.232;9.222;2023-04-12T14:27:47;15.10;99.90
20081;DHT22;10200;49.232;9.222;2023-04-12T14:30:12;15.10;99.90
20081;DHT22;10200;49.232;9.222;2023-04-12T14:32:38;15.10;99.90
20081;DHT22;10200;49.232;9.222;2023-04-12T14:35:04;15.10;99.90
20081;DHT22;10200;49.232;9.222;2023-04-12T14:37:30;15.00;99.90
20081;DHT22;10200;49.232;9.222;2023-04-12T14:39:57;14.90;99.90
20081;DHT22;10200;49.232;9.222;2023-04-12T14:42:22;14.90;99.90
20081;DHT22;10200;49.232;9.222;2023-04-12T14:44:48;14.80;99.90
20081;DHT22;10200;49.232;9.222;2023-04-12T14:47:14;14.80;99.90
20081;DHT22;10200;49.232;9.222;2023-04-12T14:49:39;14.70;99.90
20081;DHT22;10200;49.232;9.222;2023-04-12T14:52:05;14.60;99.90
20081;DHT22;10200;49.232;9.222;2023-04-12T14:54:31;14.60;99.90
20081;DHT22;10200;49.232;9.222;2023-04-12T14:56:56;14.60;99.90
20081;DHT22;10200;49.232;9.222;2023-04-12T14:59:22;14.50;99.90
20081;DHT22;10200;49.232;9.222;2023-04-12T15:01:48;14.50;99.90
20081;DHT22;10200;49.232;9.222;2023-04-12T15:04:14;14.30;99.90
20081;DHT22;10200;49.232;9.222;2023-04-12T15:06:39;14.20;99.90
20081;DHT22;10200;49.232;9.222;2023-04-12T15:09:07;14.10;99.90
20081;DHT22;10200;49.232;9.222;2023-04-12T15:11:33;13.90;99.90
20081;DHT22;10200;49.232;9.222;2023-04-12T15:14:00;13.80;99.90
20081;DHT22;10200;49.232;9.222;2023-04-12T15:16:30;13.70;99.90
20081;DHT22;10200;49.232;9.222;2023-04-12T15:18:55;13.40;99.90
20081;DHT22;10200;49.232;9.222;2023-04-12T15:21:21;13.20;99.90
20081;DHT22;10200;49.232;9.222;2023-04-12T15:23:47;13.10;99.90
20081;DHT22;10200;49.232;9.222;2023-04-12T15:26:13;13.00;99.90
20081;DHT22;10200;49.232;9.222;2023-04-12T15:28:40;12.80;99.90
20081;DHT22;10200;49.232;9.222;2023-04-12T15:31:07;12.80;99.90
20081;DHT22;10200;49.232;9.222;2023-04-12T15:33:33;12.70;99.90
20081;DHT22;10200;49.232;9.222;2023-04-12T15:36:00;12.70;99.90
20081;DHT22;10200;49.232;9.222;2023-04-12T15:38:26;12.70;99.90
20081;DHT22;10200;49.232;9.222;2023-04-12T15:40:57;12.70;99.90
20081;DHT22;10200;49.232;9.222;2023-04-12T15:43:23;12.60;99.90
20081;DHT22;10200;49.232;9.222;2023-04-12T15:45:50;12.60;99.90
20081;DHT22;10200;49.232;9.222;2023-04-12T15:48:18;12.60;99.90
20081;DHT22;10200;49.232;9.222;2023-04-12T15:50:45;12.70;99.90
20081;DHT22;10200;49.232;9.222;2023-04-12T15:53:23;12.70;99.90
20081;DHT22;10200;49.232;9.222;2023-04-12T15:55:50;12.80;99.90
20081;DHT22;10200;49.232;9.222;2023-04-12T15:58:23;12.80;99.90
20081;DHT22;10200;49.232;9.222;2023-04-12T16:00:49;12.90;99.90
20081;DHT22;10200;49.232;9.222;2023-04-12T16:03:19;12.90;99.90
20081;DHT22;10200;49.232;9.222;2023-04-12T16:05:48;13.00;99.90